sensor_id;sensor_type;location;lat;lon;timestamp;pressure;altitude;pressure_sealevel;temperature;humidity
16016;BME280;8112;53.592;10.184;2023-05-21T00:00:03;101803.16;;;12.51;100.00
16016;BME280;8112;53.592;10.184;2023-05-21T00:05:12;101798.03;;;12.48;100.00
16016;BME280;8112;53.592;10.184;2023-05-21T00:10:17;101805.94;;;12.30;100.00
16016;BME280;8112;53.592;10.184;2023-05-21T00:15:19;101801.25;;;12.18;100.00
16016;BME280;8112;53.592;10.184;2023-05-21T00:20:21;101789.41;;;12.07;100.00
16016;BME280;8112;53.592;10.184;2023-05-21T00:25:24;101786.56;;;11.93;100.00
16016;BME280;8112;53.592;10.184;2023-05-21T00:30:25;101794.06;;;12.02;100.00
16016;BME280;8112;53.592;10.184;2023-05-21T00:35:27;101784.91;;;11.90;100.00
16016;BME280;8112;53.592;10.184;2023-05-21T00:40:31;101783.00;;;11.94;100.00
16016;BME280;8112;53.592;10.184;2023-05-21T00:45:33;101786.13;;;12.02;100.00
16016;BME280;8112;53.592;10.184;2023-05-21T00:50:35;101781.19;;;11.94;100.00
16016;BME280;8112;53.592;10.184;2023-05-21T00:55:40;101774.28;;;11.92;100.00
16016;BME280;8112;53.592;10.184;2023-05-21T01:00:42;101777.50;;;11.98;100.00
16016;BME280;8112;53.592;10.184;2023-05-21T01:05:44;101765.88;;;12.03;100.00
16016;BME280;8112;53.592;10.184;2023-05-21T01:10:48;101767.97;;;12.14;100.00
16016;BME280;8112;53.592;10.184;2023-05-21T01:15:51;101770.47;;;11.97;100.00
16016;BME280;8112;53.592;10.184;2023-05-21T01:20:53;101768.25;;;12.07;100.00
16016;BME280;8112;53.592;10.184;2023-05-21T01:25:56;101763.53;;;12.14;100.00
16016;BME280;8112;53.592;10.184;2023-05-21T01:31:04;101762.06;;;12.08;100.00
16016;BME280;8112;53.592;10.184;2023-05-21T01:36:15;101755.75;;;12.11;100.00
16016;BME280;8112;53.592;10.184;2023-05-21T01:41:24;101745.56;;;12.03;100.00
16016;BME280;8112;53.592;10.184;2023-05-21T01:46:29;101755.41;;;12.00;100.00
16016;BME280;8112;53.592;10.184;2023-05-21T01:51:33;101741.63;;;11.75;100.00
16016;BME280;8112;53.592;10.184;2023-05-21T01:56:37;101744.09;;;11.78;100.00
16016;BME280;8112;53.592;10.184;2023-05-21T02:01:38;101752.66;;;11.83;100.00
16016;BME280;8112;53.592;10.184;2023-05-21T02:06:40;101738.41;;;11.68;100.00
16016;BME280;8112;53.592;10.184;2023-05-21T02:11:45;101745.34;;;11.71;100.00
16016;BME280;8112;53.592;10.184;2023-05-21T02:16:46;101742.03;;;11.85;100.00
16016;BME280;8112;53.592;10.184;2023-05-21T02:21:48;101739.16;;;11.90;100.00
16016;BME280;8112;53.592;10.184;2023-05-21T02:26:51;101733.88;;;11.90;100.00
16016;BME280;8112;53.592;10.184;2023-05-21T02:31:53;101725.69;;;11.77;100.00
16016;BME280;8112;53.592;10.184;2023-05-21T02:36:55;101729.34;;;11.74;100.00
16016;BME280;8112;53.592;10.184;2023-05-21T02:41:59;101727.56;;;11.55;100.00
16016;BME280;8112;53.592;10.184;2023-05-21T02:47:01;101711.22;;;11.47;100.00
16016;BME280;8112;53.592;10.184;2023-05-21T02:52:03;101711.22;;;11.47;100.00
16016;BME280;8112;53.592;10.184;2023-05-21T02:57:06;101710.09;;;11.34;100.00
16016;BME280;8112;53.592;10.184;2023-05-21T03:02:08;101704.69;;;11.37;100.00
16016;BME280;8112;53.592;10.184;2023-05-21T03:07:10;101698.13;;;11.46;100.00
16016;BME280;8112;53.592;10.184;2023-05-21T03:12:14;101701.59;;;11.46;100.00
16016;BME280;8112;53.592;10.184;2023-05-21T03:17:16;101700.53;;;11.50;100.00
16016;BME280;8112;53.592;10.184;2023-05-21T03:22:18;101709.00;;;11.57;100.00
16016;BME280;8112;53.592;10.184;2023-05-21T03:27:22;101717.28;;;11.49;100.00
16016;BME280;8112;53.592;10.184;2023-05-21T03:32:24;101715.09;;;11.40;100.00
16016;BME280;8112;53.592;10.184;2023-05-21T03:37:28;101713.25;;;11.42;100.00
16016;BME280;8112;53.592;10.184;2023-05-21T03:42:32;101702.69;;;11.42;100.00
16016;BME280;8112;53.592;10.184;2023-05-21T03:47:33;101701.97;;;11.58;100.00
16016;BME280;8112;53.592;10.184;2023-05-21T03:52:38;101696.75;;;11.56;100.00
16016;BME280;8112;53.592;10.184;2023-05-21T03:57:41;101700.09;;;11.60;100.00
16016;BME280;8112;53.592;10.184;2023-05-21T04:02:43;101691.19;;;11.80;100.00
16016;BME280;8112;53.592;10.184;2023-05-21T04:07:48;101690.34;;;11.79;100.00
16016;BME280;8112;53.592;10.184;2023-05-21T04:12:51;101690.69;;;11.91;100.00
16016;BME280;8112;53.592;10.184;2023-05-21T04:17:54;101687.28;;;12.06;100.00
16016;BME280;8112;53.592;10.184;2023-05-21T04:22:56;101683.50;;;12.30;100.00
16016;BME280;8112;53.592;10.184;2023-05-21T04:27:59;101683.88;;;12.39;100.00
16016;BME280;8112;53.592;10.184;2023-05-21T04:33:02;101682.75;;;12.61;100.00
16016;BME280;8112;53.592;10.184;2023-05-21T04:38:07;101679.28;;;13.26;100.00
16016;BME280;8112;53.592;10.184;2023-05-21T04:43:10;101673.41;;;13.53;100.00
16016;BME280;8112;53.592;10.184;2023-05-21T04:48:12;101678.94;;;13.65;100.00
16016;BME280;8112;53.592;10.184;2023-05-21T04:53:15;101670.41;;;13.44;100.00
16016;BME280;8112;53.592;10.184;2023-05-21T04:58:18;101678.88;;;13.34;100.00
16016;BME280;8112;53.592;10.184;2023-05-21T05:03:21;101677.56;;;13.42;100.00
16016;BME280;8112;53.592;10.184;2023-05-21T05:08:22;101684.94;;;13.52;100.00
16016;BME280;8112;53.592;10.184;2023-05-21T05:13:25;101671.41;;;13.89;100.00
16016;BME280;8112;53.592;10.184;2023-05-21T05:18:28;101674.28;;;14.15;100.00
16016;BME280;8112;53.592;10.184;2023-05-21T05:23:29;101669.91;;;14.30;100.00
16016;BME280;8112;53.592;10.184;2023-05-21T05:28:33;101670.59;;;14.63;100.00
16016;BME280;8112;53.592;10.184;2023-05-21T05:33:35;101669.63;;;14.49;100.00
16016;BME280;8112;53.592;10.184;2023-05-21T05:38:37;101670.19;;;14.54;100.00
16016;BME280;8112;53.592;10.184;2023-05-21T05:43:40;101677.03;;;14.88;100.00
16016;BME280;8112;53.592;10.184;2023-05-21T05:48:43;101663.38;;;15.08;100.00
16016;BME280;8112;53.592;10.184;2023-05-21T05:53:44;101662.06;;;15.71;100.00
16016;BME280;8112;53.592;10.184;2023-05-21T05:58:47;101657.94;;;16.20;100.00
16016;BME280;8112;53.592;10.184;2023-05-21T06:03:51;101657.53;;;16.52;100.00
16016;BME280;8112;53.592;10.184;2023-05-21T06:08:53;101650.91;;;16.71;100.00
16016;BME280;8112;53.592;10.184;2023-05-21T06:13:56;101656.22;;;16.84;100.00
16016;BME280;8112;53.592;10.184;2023-05-21T06:19:00;101651.22;;;17.05;100.00
16016;BME280;8112;53.592;10.184;2023-05-21T06:24:02;101655.94;;;17.50;100.00
16016;BME280;8112;53.592;10.184;2023-05-21T06:29:05;101656.94;;;17.85;100.00
16016;BME280;8112;53.592;10.184;2023-05-21T06:34:07;101648.84;;;17.98;100.00
16016;BME280;8112;53.592;10.184;2023-05-21T06:39:09;101650.03;;;18.18;100.00
16016;BME280;8112;53.592;10.184;2023-05-21T06:44:13;101652.94;;;18.15;100.00
16016;BME280;8112;53.592;10.184;2023-05-21T06:49:37;101648.00;;;17.97;100.00
16016;BME280;8112;53.592;10.184;2023-05-21T06:54:39;101646.19;;;17.98;100.00
16016;BME280;8112;53.592;10.184;2023-05-21T06:59:43;101645.44;;;18.31;100.00
16016;BME280;8112;53.592;10.184;2023-05-21T07:04:45;101647.38;;;18.41;100.00
16016;BME280;8112;53.592;10.184;2023-05-21T07:09:47;101643.50;;;18.56;100.00
16016;BME280;8112;53.592;10.184;2023-05-21T07:14:50;101641.19;;;18.86;100.00
16016;BME280;8112;53.592;10.184;2023-05-21T07:19:51;101640.84;;;18.79;100.00
16016;BME280;8112;53.592;10.184;2023-05-21T07:24:53;101644.13;;;18.94;100.00
16016;BME280;8112;53.592;10.184;2023-05-21T07:29:56;101638.03;;;19.15;100.00
16016;BME280;8112;53.592;10.184;2023-05-21T07:34:59;101627.00;;;19.52;100.00
16016;BME280;8112;53.592;10.184;2023-05-21T07:40:02;101633.13;;;19.64;100.00
16016;BME280;8112;53.592;10.184;2023-05-21T07:45:08;101624.72;;;19.90;100.00
16016;BME280;8112;53.592;10.184;2023-05-21T07:50:14;101620.94;;;19.71;100.00
16016;BME280;8112;53.592;10.184;2023-05-21T07:55:16;101613.22;;;20.42;100.00
16016;BME280;8112;53.592;10.184;2023-05-21T08:00:22;101618.38;;;20.64;100.00
16016;BME280;8112;53.592;10.184;2023-05-21T08:05:29;101608.25;;;21.29;100.00
16016;BME280;8112;53.592;10.184;2023-05-21T08:10:32;101610.66;;;21.42;100.00
16016;BME280;8112;53.592;10.184;2023-05-21T08:15:35;101601.63;;;21.33;100.00
16016;BME280;8112;53.592;10.184;2023-05-21T08:20:38;101601.22;;;21.67;100.00
16016;BME280;8112;53.592;10.184;2023-05-21T08:25:41;101601.44;;;22.03;100.00
16016;BME280;8112;53.592;10.184;2023-05-21T08:30:45;101601.03;;;21.98;100.00
16016;BME280;8112;53.592;10.184;2023-05-21T08:35:47;101596.41;;;21.41;100.00
16016;BME280;8112;53.592;10.184;2023-05-21T08:40:53;101604.47;;;21.51;100.00
16016;BME280;8112;53.592;10.184;2023-05-21T08:45:59;101608.97;;;21.80;100.00
16016;BME280;8112;53.592;10.184;2023-05-21T08:51:06;101605.16;;;21.43;100.00
16016;BME280;8112;53.592;10.184;2023-05-21T08:56:17;101590.59;;;21.56;100.00
16016;BME280;8112;53.592;10.184;2023-05-21T09:01:28;101589.88;;;21.63;100.00
16016;BME280;8112;53.592;10.184;2023-05-21T09:06:41;101584.63;;;22.01;100.00
16016;BME280;8112;53.592;10.184;2023-05-21T09:11:45;101584.00;;;21.70;100.00
16016;BME280;8112;53.592;10.184;2023-05-21T09:16:49;101589.97;;;22.11;100.00
16016;BME280;8112;53.592;10.184;2023-05-21T09:21:51;101587.38;;;22.19;100.00
16016;BME280;8112;53.592;10.184;2023-05-21T09:26:56;101591.38;;;22.15;100.00
16016;BME280;8112;53.592;10.184;2023-05-21T09:32:05;101593.53;;;21.92;100.00
16016;BME280;8112;53.592;10.184;2023-05-21T09:37:08;101594.97;;;21.96;100.00
16016;BME280;8112;53.592;10.184;2023-05-21T09:42:10;101601.28;;;22.15;100.00
16016;BME280;8112;53.592;10.184;2023-05-21T09:47:18;101596.06;;;22.51;100.00
16016;BME280;8112;53.592;10.184;2023-05-21T09:52:23;101590.88;;;23.14;100.00
16016;BME280;8112;53.592;10.184;2023-05-21T09:57:26;101588.72;;;22.99;100.00
16016;BME280;8112;53.592;10.184;2023-05-21T10:02:31;101573.91;;;23.49;100.00
16016;BME280;8112;53.592;10.184;2023-05-21T10:07:34;101577.34;;;24.04;100.00
16016;BME280;8112;53.592;10.184;2023-05-21T10:12:38;101564.94;;;24.55;100.00
16016;BME280;8112;53.592;10.184;2023-05-21T10:17:43;101572.75;;;24.74;100.00
16016;BME280;8112;53.592;10.184;2023-05-21T10:22:45;101559.41;;;24.65;100.00
16016;BME280;8112;53.592;10.184;2023-05-21T10:27:48;101559.97;;;24.76;100.00
16016;BME280;8112;53.592;10.184;2023-05-21T10:32:51;101554.97;;;24.90;100.00
16016;BME280;8112;53.592;10.184;2023-05-21T10:37:53;101544.38;;;25.46;100.00
16016;BME280;8112;53.592;10.184;2023-05-21T10:43:17;101545.03;;;25.73;100.00
16016;BME280;8112;53.592;10.184;2023-05-21T10:48:41;101546.41;;;25.69;100.00
16016;BME280;8112;53.592;10.184;2023-05-21T10:54:40;101530.16;;;25.78;100.00
16016;BME280;8112;53.592;10.184;2023-05-21T10:59:48;101531.28;;;26.08;100.00
16016;BME280;8112;53.592;10.184;2023-05-21T11:04:57;101533.38;;;26.69;100.00
16016;BME280;8112;53.592;10.184;2023-05-21T11:10:29;101528.28;;;26.43;100.00
16016;BME280;8112;53.592;10.184;2023-05-21T11:16:06;101528.59;;;26.00;100.00
16016;BME280;8112;53.592;10.184;2023-05-21T11:21:11;101535.44;;;26.27;100.00
16016;BME280;8112;53.592;10.184;2023-05-21T11:26:14;101518.25;;;26.20;100.00
16016;BME280;8112;53.592;10.184;2023-05-21T11:31:23;101511.78;;;26.29;100.00
16016;BME280;8112;53.592;10.184;2023-05-21T11:36:27;101523.69;;;26.03;100.00
16016;BME280;8112;53.592;10.184;2023-05-21T11:41:29;101512.41;;;26.00;100.00
16016;BME280;8112;53.592;10.184;2023-05-21T11:46:32;101513.69;;;25.56;100.00
16016;BME280;8112;53.592;10.184;2023-05-21T11:51:36;101514.69;;;25.63;100.00
16016;BME280;8112;53.592;10.184;2023-05-21T11:56:39;101511.13;;;25.71;100.00
16016;BME280;8112;53.592;10.184;2023-05-21T12:01:42;101507.28;;;25.57;100.00
16016;BME280;8112;53.592;10.184;2023-05-21T12:06:45;101502.59;;;25.26;100.00
16016;BME280;8112;53.592;10.184;2023-05-21T12:11:47;101500.47;;;25.78;100.00
16016;BME280;8112;53.592;10.184;2023-05-21T12:16:50;101494.41;;;25.84;100.00
16016;BME280;8112;53.592;10.184;2023-05-21T12:21:53;101488.59;;;25.95;100.00
16016;BME280;8112;53.592;10.184;2023-05-21T12:26:56;101491.31;;;25.95;100.00
16016;BME280;8112;53.592;10.184;2023-05-21T12:31:59;101483.63;;;25.75;100.00
16016;BME280;8112;53.592;10.184;2023-05-21T12:37:03;101483.91;;;25.89;100.00
16016;BME280;8112;53.592;10.184;2023-05-21T12:42:06;101481.06;;;25.82;100.00
16016;BME280;8112;53.592;10.184;2023-05-21T12:47:09;101479.91;;;25.76;100.00
16016;BME280;8112;53.592;10.184;2023-05-21T12:52:14;101475.91;;;25.64;100.00
16016;BME280;8112;53.592;10.184;2023-05-21T12:57:17;101479.13;;;25.10;100.00
16016;BME280;8112;53.592;10.184;2023-05-21T13:02:20;101472.06;;;24.92;100.00
16016;BME280;8112;53.592;10.184;2023-05-21T13:07:24;101468.81;;;24.63;100.00
16016;BME280;8112;53.592;10.184;2023-05-21T13:12:27;101474.94;;;24.90;100.00
16016;BME280;8112;53.592;10.184;2023-05-21T13:17:29;101463.13;;;25.16;100.00
16016;BME280;8112;53.592;10.184;2023-05-21T13:22:33;101463.66;;;25.03;100.00
16016;BME280;8112;53.592;10.184;2023-05-21T13:27:34;101460.09;;;25.11;100.00
16016;BME280;8112;53.592;10.184;2023-05-21T13:32:37;101458.69;;;25.40;100.00
16016;BME280;8112;53.592;10.184;2023-05-21T13:37:40;101454.50;;;25.54;100.00
16016;BME280;8112;53.592;10.184;2023-05-21T13:42:42;101464.59;;;25.60;100.00
16016;BME280;8112;53.592;10.184;2023-05-21T13:47:45;101463.56;;;25.70;100.00
16016;BME280;8112;53.592;10.184;2023-05-21T13:52:48;101448.75;;;25.97;100.00
16016;BME280;8112;53.592;10.184;2023-05-21T13:57:50;101449.03;;;25.79;100.00
16016;BME280;8112;53.592;10.184;2023-05-21T14:02:52;101438.31;;;26.02;100.00
16016;BME280;8112;53.592;10.184;2023-05-21T14:07:55;101431.81;;;26.20;100.00
16016;BME280;8112;53.592;10.184;2023-05-21T14:12:56;101420.38;;;26.10;100.00
16016;BME280;8112;53.592;10.184;2023-05-21T14:17:58;101428.31;;;26.03;100.00
16016;BME280;8112;53.592;10.184;2023-05-21T14:23:01;101425.97;;;26.00;100.00
16016;BME280;8112;53.592;10.184;2023-05-21T14:28:03;101429.41;;;25.85;100.00
16016;BME280;8112;53.592;10.184;2023-05-21T14:33:05;101428.09;;;26.13;100.00
16016;BME280;8112;53.592;10.184;2023-05-21T14:38:08;101429.63;;;25.75;100.00
16016;BME280;8112;53.592;10.184;2023-05-21T14:43:10;101436.84;;;25.92;100.00
16016;BME280;8112;53.592;10.184;2023-05-21T14:48:11;101425.69;;;25.95;100.00
16016;BME280;8112;53.592;10.184;2023-05-21T14:53:15;101427.53;;;25.94;100.00
16016;BME280;8112;53.592;10.184;2023-05-21T14:58:16;101435.81;;;25.93;100.00
16016;BME280;8112;53.592;10.184;2023-05-21T15:03:18;101436.03;;;25.83;100.00
16016;BME280;8112;53.592;10.184;2023-05-21T15:08:21;101436.84;;;25.92;100.00
16016;BME280;8112;53.592;10.184;2023-05-21T15:13:23;101431.31;;;25.76;100.00
16016;BME280;8112;53.592;10.184;2023-05-21T15:18:24;101427.59;;;25.78;100.00
16016;BME280;8112;53.592;10.184;2023-05-21T15:23:27;101426.56;;;25.79;100.00
16016;BME280;8112;53.592;10.184;2023-05-21T15:28:29;101431.28;;;25.85;100.00
16016;BME280;8112;53.592;10.184;2023-05-21T15:33:31;101422.53;;;25.74;100.00
16016;BME280;8112;53.592;10.184;2023-05-21T15:38:34;101419.06;;;25.97;100.00
16016;BME280;8112;53.592;10.184;2023-05-21T15:43:35;101415.91;;;25.85;100.00
16016;BME280;8112;53.592;10.184;2023-05-21T15:48:37;101416.47;;;25.81;100.00
16016;BME280;8112;53.592;10.184;2023-05-21T15:53:40;101405.09;;;25.37;100.00
16016;BME280;8112;53.592;10.184;2023-05-21T15:58:42;101407.16;;;25.18;100.00
16016;BME280;8112;53.592;10.184;2023-05-21T16:03:44;101393.97;;;25.40;100.00
16016;BME280;8112;53.592;10.184;2023-05-21T16:08:47;101395.81;;;25.48;100.00
16016;BME280;8112;53.592;10.184;2023-05-21T16:13:49;101389.25;;;25.51;100.00
16016;BME280;8112;53.592;10.184;2023-05-21T16:18:50;101386.75;;;25.16;100.00
16016;BME280;8112;53.592;10.184;2023-05-21T16:23:54;101387.84;;;24.98;100.00
16016;BME280;8112;53.592;10.184;2023-05-21T16:28:55;101394.72;;;25.01;100.00
16016;BME280;8112;53.592;10.184;2023-05-21T16:33:57;101385.81;;;24.75;100.00
16016;BME280;8112;53.592;10.184;2023-05-21T16:39:00;101377.34;;;24.54;100.00
16016;BME280;8112;53.592;10.184;2023-05-21T16:44:02;101392.00;;;24.43;100.00
16016;BME280;8112;53.592;10.184;2023-05-21T16:49:03;101386.25;;;24.29;100.00
16016;BME280;8112;53.592;10.184;2023-05-21T16:54:06;101379.16;;;24.12;100.00
16016;BME280;8112;53.592;10.184;2023-05-21T16:59:08;101368.56;;;24.10;100.00
16016;BME280;8112;53.592;10.184;2023-05-21T17:04:10;101364.28;;;23.99;100.00
16016;BME280;8112;53.592;10.184;2023-05-21T17:09:13;101366.56;;;23.77;100.00
16016;BME280;8112;53.592;10.184;2023-05-21T17:14:14;101364.56;;;23.80;100.00
16016;BME280;8112;53.592;10.184;2023-05-21T17:19:16;101362.38;;;23.75;100.00
16016;BME280;8112;53.592;10.184;2023-05-21T17:24:19;101374.22;;;23.56;100.00
16016;BME280;8112;53.592;10.184;2023-05-21T17:29:21;101370.56;;;23.30;100.00
16016;BME280;8112;53.592;10.184;2023-05-21T17:34:22;101385.47;;;23.25;100.00
16016;BME280;8112;53.592;10.184;2023-05-21T17:39:29;101383.81;;;23.05;100.00
16016;BME280;8112;53.592;10.184;2023-05-21T17:44:31;101386.84;;;22.84;100.00
16016;BME280;8112;53.592;10.184;2023-05-21T17:49:33;101377.41;;;22.80;100.00
16016;BME280;8112;53.592;10.184;2023-05-21T17:54:36;101386.34;;;22.81;100.00
16016;BME280;8112;53.592;10.184;2023-05-21T17:59:38;101387.19;;;22.63;100.00
16016;BME280;8112;53.592;10.184;2023-05-21T18:04:44;101384.06;;;22.49;100.00
16016;BME280;8112;53.592;10.184;2023-05-21T18:09:47;101389.56;;;22.48;100.00
16016;BME280;8112;53.592;10.184;2023-05-21T18:14:49;101400.09;;;22.59;100.00
16016;BME280;8112;53.592;10.184;2023-05-21T18:19:50;101392.25;;;22.48;100.00
16016;BME280;8112;53.592;10.184;2023-05-21T18:24:53;101392.84;;;22.42;100.00
16016;BME280;8112;53.592;10.184;2023-05-21T18:29:55;101388.09;;;22.54;100.00
16016;BME280;8112;53.592;10.184;2023-05-21T18:34:57;101386.41;;;22.34;100.00
16016;BME280;8112;53.592;10.184;2023-05-21T18:40:00;101397.50;;;22.21;100.00
16016;BME280;8112;53.592;10.184;2023-05-21T18:45:07;101387.38;;;22.15;100.00
16016;BME280;8112;53.592;10.184;2023-05-21T18:50:11;101393.19;;;22.11;100.00
16016;BME280;8112;53.592;10.184;2023-05-21T18:55:14;101392.00;;;21.95;100.00
16016;BME280;8112;53.592;10.184;2023-05-21T19:00:16;101389.94;;;21.89;100.00
16016;BME280;8112;53.592;10.184;2023-05-21T19:05:18;101388.63;;;21.93;100.00
16016;BME280;8112;53.592;10.184;2023-05-21T19:10:21;101388.38;;;21.86;100.00
16016;BME280;8112;53.592;10.184;2023-05-21T19:15:23;101395.91;;;21.83;100.00
16016;BME280;8112;53.592;10.184;2023-05-21T19:20:25;101393.00;;;21.66;100.00
16016;BME280;8112;53.592;10.184;2023-05-21T19:25:28;101381.41;;;21.66;100.00
16016;BME280;8112;53.592;10.184;2023-05-21T19:30:30;101395.25;;;21.61;100.00
16016;BME280;8112;53.592;10.184;2023-05-21T19:35:35;101392.75;;;21.49;100.00
16016;BME280;8112;53.592;10.184;2023-05-21T19:40:38;101403.66;;;21.38;100.00
16016;BME280;8112;53.592;10.184;2023-05-21T19:45:40;101408.75;;;21.31;100.00
16016;BME280;8112;53.592;10.184;2023-05-21T19:50:41;101415.66;;;21.34;100.00
16016;BME280;8112;53.592;10.184;2023-05-21T19:55:44;101419.47;;;21.21;100.00
16016;BME280;8112;53.592;10.184;2023-05-21T20:00:46;101415.41;;;21.17;100.00
16016;BME280;8112;53.592;10.184;2023-05-21T20:05:49;101416.28;;;21.08;100.00
16016;BME280;8112;53.592;10.184;2023-05-21T20:10:52;101421.94;;;21.05;100.00
16016;BME280;8112;53.592;10.184;2023-05-21T20:15:54;101435.06;;;20.98;100.00
16016;BME280;8112;53.592;10.184;2023-05-21T20:20:56;101435.47;;;20.93;100.00
16016;BME280;8112;53.592;10.184;2023-05-21T20:25:59;101442.81;;;20.91;100.00
16016;BME280;8112;53.592;10.184;2023-05-21T20:31:01;101440.81;;;20.93;100.00
16016;BME280;8112;53.592;10.184;2023-05-21T20:36:03;101442.41;;;20.86;100.00
16016;BME280;8112;53.592;10.184;2023-05-21T20:41:06;101446.75;;;20.87;100.00
16016;BME280;8112;53.592;10.184;2023-05-21T20:46:07;101440.25;;;20.80;100.00
16016;BME280;8112;53.592;10.184;2023-05-21T20:51:10;101448.97;;;20.72;100.00
16016;BME280;8112;53.592;10.184;2023-05-21T20:56:13;101453.78;;;20.69;100.00
16016;BME280;8112;53.592;10.184;2023-05-21T21:01:16;101445.88;;;20.67;100.00
16016;BME280;8112;53.592;10.184;2023-05-21T21:06:17;101449.13;;;20.61;100.00
16016;BME280;8112;53.592;10.184;2023-05-21T21:11:22;101455.16;;;20.53;100.00
16016;BME280;8112;53.592;10.184;2023-05-21T21:16:24;101445.00;;;20.47;100.00
16016;BME280;8112;53.592;10.184;2023-05-21T21:21:26;101444.84;;;20.39;100.00
16016;BME280;8112;53.592;10.184;2023-05-21T21:26:29;101444.66;;;20.30;100.00
16016;BME280;8112;53.592;10.184;2023-05-21T21:31:30;101445.50;;;20.21;100.00
16016;BME280;8112;53.592;10.184;2023-05-21T21:36:32;101451.66;;;20.12;100.00
16016;BME280;8112;53.592;10.184;2023-05-21T21:41:35;101457.00;;;20.02;100.00
16016;BME280;8112;53.592;10.184;2023-05-21T21:46:37;101447.16;;;20.02;100.00
16016;BME280;8112;53.592;10.184;2023-05-21T21:51:39;101457.25;;;19.99;100.00
16016;BME280;8112;53.592;10.184;2023-05-21T21:56:42;101452.00;;;19.87;100.00
16016;BME280;8112;53.592;10.184;2023-05-21T22:01:44;101448.16;;;19.80;100.00
16016;BME280;8112;53.592;10.184;2023-05-21T22:06:45;101445.31;;;19.72;100.00
16016;BME280;8112;53.592;10.184;2023-05-21T22:11:48;101447.66;;;19.65;100.00
16016;BME280;8112;53.592;10.184;2023-05-21T22:16:51;101449.56;;;19.53;100.00
16016;BME280;8112;53.592;10.184;2023-05-21T22:21:54;101443.19;;;19.44;100.00
16016;BME280;8112;53.592;10.184;2023-05-21T22:27:00;101439.47;;;19.35;100.00
16016;BME280;8112;53.592;10.184;2023-05-21T22:32:02;101437.78;;;19.34;100.00
16016;BME280;8112;53.592;10.184;2023-05-21T22:37:03;101432.72;;;19.31;100.00
16016;BME280;8112;53.592;10.184;2023-05-21T22:42:07;101441.56;;;19.32;100.00
16016;BME280;8112;53.592;10.184;2023-05-21T22:47:08;101429.00;;;19.22;100.00
16016;BME280;8112;53.592;10.184;2023-05-21T22:52:10;101427.31;;;19.21;100.00
16016;BME280;8112;53.592;10.184;2023-05-21T22:57:15;101430.22;;;19.18;100.00
16016;BME280;8112;53.592;10.184;2023-05-21T23:02:16;101427.09;;;19.13;100.00
16016;BME280;8112;53.592;10.184;2023-05-21T23:07:18;101423.38;;;19.04;100.00
16016;BME280;8112;53.592;10.184;2023-05-21T23:12:21;101423.38;;;19.04;100.00
16016;BME280;8112;53.592;10.184;2023-05-21T23:17:23;101415.25;;;18.94;100.00
16016;BME280;8112;53.592;10.184;2023-05-21T23:22:25;101420.41;;;18.86;100.00
16016;BME280;8112;53.592;10.184;2023-05-21T23:27:28;101420.66;;;18.83;100.00
16016;BME280;8112;53.592;10.184;2023-05-21T23:32:30;101415.94;;;18.75;100.00
16016;BME280;8112;53.592;10.184;2023-05-21T23:37:31;101415.38;;;18.72;100.00
16016;BME280;8112;53.592;10.184;2023-05-21T23:42:34;101411.19;;;18.58;100.00
16016;BME280;8112;53.592;10.184;2023-05-21T23:47:36;101411.31;;;18.56;100.00
16016;BME280;8112;53.592;10.184;2023-05-21T23:52:38;101415.28;;;18.62;100.00
16016;BME280;8112;53.592;10.184;2023-05-21T23:57:42;101407.53;;;18.59;100.00
